Time;durP1;ratioP1;P1;durP2;ratioP2;P2;SDS_P1;SDS_P2;PMS_P1;PMS_P2;Temp;Humidity;BMP_temperature;BMP_pressure;BME280_temperature;BME280_humidity;BME280_pressure;Samples;Min_cycle;Max_cycle;Signal;HPM_P1;HPM_P2
2022/03/11 00:00:34;;;;;;;4.77;4.27;;;;;;;6.48;42.41;102271.06;4946533;28;97131;-81
2022/03/11 00:02:59;;;;;;;4.70;3.80;;;;;;;6.46;42.44;102264.47;4945929;28;96868;-82
2022/03/11 00:05:25;;;;;;;6.23;4.33;;;;;;;6.41;42.75;102278.66;4946967;28;97332;-82
2022/03/11 00:07:51;;;;;;;4.53;4.00;;;;;;;6.34;42.50;102257.69;4949764;28;99384;-81
2022/03/11 00:10:16;;;;;;;7.90;4.30;;;;;;;6.24;42.64;102261.44;4950101;28;96614;-81
2022/03/11 00:12:42;;;;;;;6.30;4.03;;;;;;;6.15;42.97;102265.94;4952972;28;96860;-82
2022/03/11 00:15:08;;;;;;;4.73;3.90;;;;;;;6.10;42.78;102247.28;4945062;28;97471;-81
2022/03/11 00:17:34;;;;;;;7.00;4.50;;;;;;;6.09;42.82;102259.44;4947488;28;99307;-82
2022/03/11 00:20:00;;;;;;;4.60;3.50;;;;;;;6.05;42.81;102252.06;4965265;28;97185;-81
2022/03/11 00:22:25;;;;;;;5.77;3.97;;;;;;;6.03;42.92;102248.97;4952323;28;97137;-82
2022/03/11 00:24:51;;;;;;;5.47;4.20;;;;;;;5.99;43.27;102256.50;4954627;28;96856;-82
2022/03/11 00:27:16;;;;;;;5.03;3.90;;;;;;;5.97;43.10;102255.38;4952908;28;96947;-81
2022/03/11 00:29:41;;;;;;;5.13;3.50;;;;;;;5.94;43.07;102262.44;4955706;28;96885;-81
2022/03/11 00:32:07;;;;;;;6.17;4.27;;;;;;;5.89;42.90;102257.47;4946671;28;97105;-81
2022/03/11 00:34:34;;;;;;;6.57;3.87;;;;;;;5.85;43.27;102264.19;4953062;28;96718;-81
2022/03/11 00:37:00;;;;;;;5.17;4.10;;;;;;;5.81;43.15;102277.13;4957825;28;97359;-81
2022/03/11 00:39:25;;;;;;;7.00;4.70;;;;;;;5.81;43.08;102272.41;4951076;28;96856;-82
2022/03/11 00:41:51;;;;;;;5.90;4.50;;;;;;;5.74;43.23;102267.13;4962213;28;96918;-81
2022/03/11 00:44:16;;;;;;;6.60;4.43;;;;;;;5.67;43.03;102267.25;4958114;28;96915;-81
2022/03/11 00:46:42;;;;;;;6.80;4.67;;;;;;;5.65;43.08;102277.03;4955103;28;98068;-81
2022/03/11 00:49:07;;;;;;;5.97;4.30;;;;;;;5.62;43.07;102278.63;4955745;28;97167;-83
2022/03/11 00:51:33;;;;;;;4.57;4.13;;;;;;;5.63;43.43;102263.03;4960312;28;96908;-82
2022/03/11 00:53:58;;;;;;;5.20;4.10;;;;;;;5.63;43.36;102258.34;4951655;28;104349;-82
2022/03/11 00:56:24;;;;;;;4.00;3.60;;;;;;;5.63;43.20;102258.34;4952596;28;98110;-82
2022/03/11 00:58:49;;;;;;;6.97;4.00;;;;;;;5.56;43.44;102255.75;4955051;28;96664;-82
2022/03/11 01:01:15;;;;;;;5.37;4.23;;;;;;;5.65;43.47;102260.66;4949263;28;96633;-82
2022/03/11 01:03:40;;;;;;;5.63;4.07;;;;;;;5.66;43.19;102267.63;4956300;28;98739;-82
2022/03/11 01:06:06;;;;;;;9.00;4.80;;;;;;;5.59;43.55;102263.09;4955665;28;97859;-82
2022/03/11 01:08:31;;;;;;;5.73;4.20;;;;;;;5.59;43.63;102263.09;4942441;28;97252;-81
2022/03/11 01:10:56;;;;;;;4.77;3.80;;;;;;;5.58;43.59;102261.56;4952220;28;96755;-82
2022/03/11 01:13:22;;;;;;;7.30;4.07;;;;;;;5.51;43.30;102258.94;4958564;28;98878;-81
2022/03/11 01:15:48;;;;;;;6.63;4.13;;;;;;;5.51;43.35;102267.13;4962166;28;100212;-81
2022/03/11 01:18:13;;;;;;;5.20;4.03;;;;;;;5.46;43.32;102255.94;4961000;28;96906;-82
2022/03/11 01:20:38;;;;;;;6.27;4.40;;;;;;;5.42;43.44;102257.97;4958969;28;96773;-82
2022/03/11 01:23:04;;;;;;;5.37;4.13;;;;;;;5.41;43.55;102268.13;4960111;28;98836;-82
2022/03/11 01:25:29;;;;;;;5.53;4.20;;;;;;;5.36;43.30;102254.16;4957978;28;97389;-81
2022/03/11 01:27:54;;;;;;;4.43;4.00;;;;;;;5.30;43.43;102262.84;4961293;28;96922;-81
2022/03/11 01:30:21;;;;;;;5.43;3.77;;;;;;;5.28;43.71;102262.50;4950523;28;96986;-82
2022/03/11 01:32:46;;;;;;;6.10;4.20;;;;;;;5.27;43.62;102252.75;4947723;28;99268;-81
2022/03/11 01:35:12;;;;;;;4.13;3.73;;;;;;;5.26;43.52;102242.25;4956231;28;97225;-83
2022/03/11 01:37:37;;;;;;;6.63;3.93;;;;;;;5.18;43.78;102249.00;4945392;28;96906;-81
2022/03/11 01:40:04;;;;;;;6.20;4.00;;;;;;;5.13;43.89;102252.25;4953613;28;97088;-81
2022/03/11 01:42:32;;;;;;;7.70;4.60;;;;;;;5.12;43.63;102256.13;4949765;28;99758;-81
2022/03/11 01:44:57;;;;;;;3.90;3.50;;;;;;;5.11;43.75;102240.97;4960662;28;98673;-82
2022/03/11 01:47:23;;;;;;;4.70;3.70;;;;;;;5.09;43.50;102237.88;4953017;28;97137;-82
2022/03/11 01:49:48;;;;;;;4.33;3.87;;;;;;;5.03;43.55;102277.72;4956183;28;96856;-81
2022/03/11 01:52:14;;;;;;;7.27;4.40;;;;;;;5.01;43.73;102231.00;4961833;28;96843;-81
2022/03/11 01:54:42;;;;;;;4.50;3.60;;;;;;;5.02;43.69;102227.09;4953286;28;96968;-81
2022/03/11 01:57:08;;;;;;;7.03;3.47;;;;;;;5.02;43.69;102232.53;4949506;28;96815;-82
2022/03/11 01:59:33;;;;;;;5.30;3.70;;;;;;;4.98;43.92;102229.84;4945607;28;96838;-83
2022/03/11 02:01:59;;;;;;;5.23;4.10;;;;;;;4.96;43.79;102231.47;4950167;28;100783;-82
2022/03/11 02:04:24;;;;;;;5.00;3.53;;;;;;;4.97;43.45;102235.75;4954924;28;97812;-81
2022/03/11 02:06:50;;;;;;;3.23;3.00;;;;;;;4.99;43.75;102230.63;4954152;28;96757;-82
2022/03/11 02:09:15;;;;;;;5.10;3.57;;;;;;;4.94;44.05;102242.00;4937694;28;97522;-81
2022/03/11 02:11:41;;;;;;;4.20;3.43;;;;;;;4.92;43.77;102233.47;4934498;28;97852;-81
2022/03/11 02:14:06;;;;;;;4.53;3.00;;;;;;;4.88;43.65;102225.38;4926711;28;97411;-82
2022/03/11 02:16:37;;;;;;;5.20;4.30;;;;;;;4.87;43.89;102229.25;4937250;28;96957;-81
2022/03/11 02:19:05;;;;;;;4.00;3.60;;;;;;;4.85;43.65;102219.97;4930251;28;97188;-83
2022/03/11 02:21:40;;;;;;;4.83;3.10;;;;;;;4.86;43.60;102221.50;4932401;28;97015;-83
2022/03/11 02:24:07;;;;;;;4.53;3.77;;;;;;;4.77;43.72;102218.53;4936380;28;96976;-83
2022/03/11 02:26:33;;;;;;;9.03;3.17;;;;;;;4.76;43.99;102225.94;4933041;28;97087;-85
2022/03/11 02:28:59;;;;;;;4.80;3.30;;;;;;;4.76;43.78;102225.19;4933031;28;97279;-83
2022/03/11 02:31:28;;;;;;;4.70;3.53;;;;;;;4.72;44.04;102227.94;4936504;28;97622;-83
2022/03/11 02:33:54;;;;;;;5.20;3.40;;;;;;;4.70;43.69;102226.81;4939263;28;97884;-84
2022/03/11 02:36:20;;;;;;;5.93;3.60;;;;;;;4.65;43.91;102216.41;4930780;28;97163;-84
2022/03/11 02:38:46;;;;;;;7.03;4.40;;;;;;;4.63;44.19;102214.06;4929337;28;97523;-84
2022/03/11 02:41:11;;;;;;;4.67;3.50;;;;;;;4.65;44.03;102216.41;4969434;28;97570;-84
2022/03/11 02:43:37;;;;;;;3.67;3.33;;;;;;;4.64;44.00;102220.28;4937317;28;97373;-83
2022/03/11 02:46:03;;;;;;;3.37;3.07;;;;;;;4.61;43.88;102210.22;4921235;28;96718;-83
2022/03/11 02:48:28;;;;;;;5.53;3.47;;;;;;;4.54;43.67;102208.38;4933299;28;97410;-83
2022/03/11 02:50:54;;;;;;;5.83;3.43;;;;;;;4.52;43.98;102208.03;4927430;28;99923;-83
2022/03/11 02:53:20;;;;;;;7.13;3.90;;;;;;;4.47;43.82;102225.63;4932051;28;98482;-84
2022/03/11 02:55:45;;;;;;;7.63;4.63;;;;;;;4.40;43.69;102211.31;4928115;28;97199;-84
2022/03/11 02:58:11;;;;;;;6.40;3.23;;;;;;;4.34;43.80;102212.97;4931021;28;96758;-83
2022/03/11 03:00:37;;;;;;;5.43;3.90;;;;;;;4.35;43.95;102209.81;4931240;28;97126;-83
2022/03/11 03:03:02;;;;;;;7.43;4.60;;;;;;;4.32;43.93;102202.47;4968345;28;100990;-84
2022/03/11 03:05:28;;;;;;;11.30;5.50;;;;;;;4.20;43.92;102188.63;4934659;28;96837;-83
2022/03/11 03:07:53;;;;;;;8.97;5.30;;;;;;;4.12;43.93;102204.31;4944861;28;96994;-83
2022/03/11 03:10:19;;;;;;;6.80;4.60;;;;;;;4.09;44.07;102190.72;4911507;28;97649;-84
2022/03/11 03:12:44;;;;;;;5.77;4.10;;;;;;;4.07;44.26;102180.25;4937548;28;97628;-82
2022/03/11 03:15:10;;;;;;;9.10;4.30;;;;;;;4.05;44.19;102170.94;4935655;28;97137;-84
2022/03/11 03:17:36;;;;;;;5.00;3.50;;;;;;;4.05;44.28;102176.38;4929975;28;96869;-83
2022/03/11 03:20:03;;;;;;;5.40;3.77;;;;;;;4.05;44.10;102168.22;4925790;28;98901;-84
2022/03/11 03:22:28;;;;;;;5.40;3.43;;;;;;;4.04;44.03;102175.63;4950470;28;99855;-83
2022/03/11 03:24:54;;;;;;;6.33;3.60;;;;;;;3.96;44.23;102176.91;4955496;28;97066;-84
2022/03/11 03:27:19;;;;;;;4.57;3.70;;;;;;;3.94;44.40;102171.09;4958129;28;97174;-84
2022/03/11 03:29:45;;;;;;;5.43;3.97;;;;;;;3.98;44.35;102174.53;4957978;28;99353;-83
2022/03/11 03:32:10;;;;;;;3.67;2.53;;;;;;;3.97;44.29;102185.84;4962803;28;97335;-83
2022/03/11 03:34:37;;;;;;;3.50;3.20;;;;;;;3.98;44.44;102185.44;4954116;28;97750;-82
2022/03/11 03:37:07;;;;;;;3.90;3.43;;;;;;;3.98;44.21;102169.09;4939312;28;97061;-83
2022/03/11 03:39:34;;;;;;;4.17;2.90;;;;;;;3.97;44.38;102189.34;4927050;28;97313;-84
2022/03/11 03:41:59;;;;;;;6.33;3.50;;;;;;;3.93;44.16;102172.28;4930793;28;97537;-84
2022/03/11 03:44:25;;;;;;;4.20;3.70;;;;;;;3.92;44.35;102181.63;4926463;28;96881;-83
2022/03/11 03:46:50;;;;;;;5.80;3.43;;;;;;;3.93;44.30;102183.19;4934344;28;96880;-84
2022/03/11 03:49:16;;;;;;;4.83;3.00;;;;;;;3.95;44.05;102174.59;4933035;28;97720;-83
2022/03/11 03:51:42;;;;;;;6.00;3.00;;;;;;;3.91;44.23;102182.78;4928702;28;100700;-84
2022/03/11 03:54:12;;;;;;;5.20;3.50;;;;;;;3.87;44.28;102184.78;4936514;28;97656;-83
2022/03/11 03:56:38;;;;;;;4.20;3.33;;;;;;;3.85;44.33;102162.66;4924239;28;96925;-84
2022/03/11 03:59:05;;;;;;;3.03;2.57;;;;;;;3.80;44.31;102166.59;4953986;28;100911;-82
2022/03/11 04:01:33;;;;;;;4.57;3.03;;;;;;;3.78;44.34;102165.47;4945765;28;97714;-83
2022/03/11 04:03:58;;;;;;;4.90;2.67;;;;;;;3.75;44.27;102160.84;4940757;28;97175;-83
2022/03/11 04:06:24;;;;;;;5.30;3.30;;;;;;;3.74;44.27;102162.78;4942305;28;97377;-84
2022/03/11 04:08:50;;;;;;;5.20;3.50;;;;;;;3.75;44.21;102160.84;4966360;28;98923;-82
2022/03/11 04:11:15;;;;;;;7.00;3.13;;;;;;;3.72;44.25;102175.25;4949909;28;99569;-84
2022/03/11 04:13:41;;;;;;;6.73;3.20;;;;;;;3.68;44.25;102153.56;4978474;28;97352;-84
2022/03/11 04:16:06;;;;;;;3.90;3.10;;;;;;;3.72;44.25;102159.72;4957685;28;96876;-83
2022/03/11 04:18:32;;;;;;;4.40;3.40;;;;;;;3.71;44.31;102171.75;4946921;28;99343;-84
2022/03/11 04:20:58;;;;;;;3.27;2.70;;;;;;;3.68;44.22;102152.78;4947946;28;97612;-82
2022/03/11 04:23:23;;;;;;;4.17;3.10;;;;;;;3.64;44.27;102147.38;4943443;28;96981;-83
2022/03/11 04:25:49;;;;;;;9.20;3.90;;;;;;;3.63;44.47;102136.88;4962510;28;96883;-85
2022/03/11 04:28:14;;;;;;;4.40;3.23;;;;;;;3.58;44.46;102157.16;4955694;28;97405;-84
2022/03/11 04:30:39;;;;;;;3.40;3.10;;;;;;;3.54;44.45;102147.50;4964275;28;97091;-83
2022/03/11 04:33:05;;;;;;;7.30;4.40;;;;;;;3.54;44.57;102137.38;4958650;28;97541;-84
2022/03/11 04:35:39;;;;;;;4.93;2.97;;;;;;;3.52;44.57;102145.19;4964895;28;97168;-83
2022/03/11 04:38:04;;;;;;;4.20;2.70;;;;;;;3.50;44.34;102141.31;4980824;28;98304;-83
2022/03/11 04:40:30;;;;;;;5.73;4.20;;;;;;;3.50;44.40;102133.16;4960341;28;98721;-83
2022/03/11 04:42:55;;;;;;;8.10;3.77;;;;;;;3.52;44.51;102128.06;4959159;28;97011;-83
2022/03/11 04:45:20;;;;;;;3.73;3.30;;;;;;;3.48;44.74;102125.41;4950788;28;98748;-84
2022/03/11 04:47:46;;;;;;;10.00;3.87;;;;;;;3.47;44.29;102125.84;4953867;28;98410;-83
2022/03/11 04:50:12;;;;;;;5.70;3.53;;;;;;;3.42;44.50;102115.38;4954144;28;97605;-83
2022/03/11 04:52:37;;;;;;;6.67;3.90;;;;;;;3.34;44.60;102101.09;4952146;28;98025;-83
2022/03/11 04:55:03;;;;;;;4.90;3.70;;;;;;;3.35;44.58;102121.69;4953805;28;97612;-83
2022/03/11 04:57:29;;;;;;;6.13;3.90;;;;;;;3.35;44.52;102110.03;4943554;28;97739;-83
2022/03/11 04:59:55;;;;;;;4.10;3.27;;;;;;;3.36;44.62;102106.16;4950248;28;96941;-83
2022/03/11 05:02:25;;;;;;;3.90;3.43;;;;;;;3.33;44.82;102109.66;4954080;28;97197;-82
2022/03/11 05:04:50;;;;;;;4.40;3.33;;;;;;;3.29;44.66;102114.38;4970934;28;96713;-81
2022/03/11 05:07:16;;;;;;;6.37;4.10;;;;;;;3.25;44.57;102127.25;4958547;28;97615;-81
2022/03/11 05:09:41;;;;;;;7.57;4.20;;;;;;;3.25;44.77;102108.22;4956333;28;103069;-81
2022/03/11 05:12:07;;;;;;;7.07;4.10;;;;;;;3.17;44.64;102104.03;4946978;28;96872;-82
2022/03/11 05:14:32;;;;;;;5.63;3.70;;;;;;;3.19;44.58;102118.00;4944423;28;96926;-82
2022/03/11 05:16:58;;;;;;;4.80;3.67;;;;;;;3.17;44.64;102123.06;4931332;28;96876;-81
2022/03/11 05:19:24;;;;;;;6.27;3.70;;;;;;;3.12;44.88;102112.63;4959690;28;96876;-81
2022/03/11 05:21:50;;;;;;;6.77;3.00;;;;;;;3.04;44.54;102128.25;4968813;28;96759;-81
2022/03/11 05:24:15;;;;;;;5.50;3.67;;;;;;;3.05;44.75;102108.03;4957537;28;96824;-81
2022/03/11 05:26:41;;;;;;;5.03;3.60;;;;;;;3.03;44.67;102105.75;4951117;28;96842;-82
2022/03/11 05:29:07;;;;;;;6.97;3.60;;;;;;;2.90;44.79;102102.00;4955958;28;96842;-82
2022/03/11 05:31:32;;;;;;;5.57;4.00;;;;;;;2.99;44.95;102120.53;4960463;28;96941;-82
2022/03/11 05:33:58;;;;;;;5.63;3.67;;;;;;;2.94;44.86;102119.03;4948310;28;96836;-82
2022/03/11 05:36:23;;;;;;;6.27;3.73;;;;;;;3.01;44.89;102135.25;4955860;28;98760;-82
2022/03/11 05:38:49;;;;;;;4.40;3.60;;;;;;;2.98;44.93;102119.75;4953678;28;98209;-81
2022/03/11 05:41:14;;;;;;;7.33;4.20;;;;;;;3.00;44.88;102139.16;4956002;28;97056;-82
2022/03/11 05:43:40;;;;;;;6.87;4.20;;;;;;;2.98;44.82;102135.28;4942513;28;96765;-81
2022/03/11 05:46:05;;;;;;;4.80;3.63;;;;;;;2.99;44.73;102136.84;4956030;28;97394;-81
2022/03/11 05:48:32;;;;;;;3.87;3.27;;;;;;;2.94;44.94;102126.41;4945394;28;97319;-82
2022/03/11 05:50:57;;;;;;;4.20;3.63;;;;;;;2.93;44.94;102127.56;4942240;28;97917;-82
2022/03/11 05:53:22;;;;;;;7.07;3.47;;;;;;;2.93;44.97;102133.78;4952010;28;97040;-81
2022/03/11 05:55:48;;;;;;;4.77;3.60;;;;;;;2.94;45.02;102129.91;4946720;28;97218;-82
2022/03/11 05:58:13;;;;;;;6.13;3.90;;;;;;;2.92;44.84;102131.47;4947720;28;98558;-81
2022/03/11 06:00:39;;;;;;;4.53;3.33;;;;;;;2.96;45.00;102133.00;4948305;28;96859;-82
2022/03/11 06:03:04;;;;;;;3.67;3.03;;;;;;;2.98;45.13;102135.28;4953728;28;96974;-82
2022/03/11 06:05:30;;;;;;;5.90;4.07;;;;;;;3.01;44.86;102148.09;4948489;28;101726;-81
2022/03/11 06:07:55;;;;;;;10.73;3.63;;;;;;;3.00;44.77;102146.53;4952285;28;96883;-82
2022/03/11 06:10:21;;;;;;;4.57;3.30;;;;;;;2.96;44.89;102135.72;4961356;28;96918;-81
2022/03/11 06:12:46;;;;;;;6.70;3.87;;;;;;;2.95;44.98;102142.31;4945802;28;97676;-82
2022/03/11 06:15:12;;;;;;;7.00;3.80;;;;;;;2.98;44.74;102143.44;4951607;28;98712;-81
2022/03/11 06:17:38;;;;;;;5.77;3.87;;;;;;;2.97;44.93;102144.63;4949257;28;96921;-81
2022/03/11 06:20:05;;;;;;;7.50;4.13;;;;;;;2.96;44.98;102156.69;4953885;28;96722;-82
2022/03/11 06:22:30;;;;;;;8.10;4.30;;;;;;;2.96;44.82;102143.88;4950789;28;96829;-81
2022/03/11 06:24:58;;;;;;;5.13;3.93;;;;;;;2.95;44.93;102142.31;4951665;28;99771;-83
2022/03/11 06:27:25;;;;;;;6.30;3.80;;;;;;;2.94;44.99;102143.50;4947780;28;97566;-81
2022/03/11 06:29:51;;;;;;;10.60;4.57;;;;;;;2.99;44.85;102147.72;4945866;28;96983;-81
2022/03/11 06:32:17;;;;;;;7.33;3.90;;;;;;;2.93;44.69;102139.22;4956295;28;97166;-82
2022/03/11 06:34:42;;;;;;;5.50;3.60;;;;;;;3.03;44.97;102154.69;4966299;28;99914;-81
2022/03/11 06:37:08;;;;;;;5.50;3.47;;;;;;;3.04;45.12;102150.75;4952076;28;96913;-82
2022/03/11 06:39:33;;;;;;;5.07;3.93;;;;;;;3.03;44.76;102167.50;4955775;28;96767;-82
2022/03/11 06:41:59;;;;;;;5.37;3.87;;;;;;;3.02;45.01;102150.41;4955053;28;97045;-81
2022/03/11 06:44:24;;;;;;;4.77;3.73;;;;;;;3.11;44.68;102160.03;4946884;28;99707;-82
2022/03/11 06:46:49;;;;;;;6.43;3.80;;;;;;;3.13;44.56;102166.59;4956010;28;99959;-82
2022/03/11 06:49:15;;;;;;;6.10;3.80;;;;;;;3.12;44.81;102169.72;4931633;28;96717;-82
2022/03/11 06:51:40;;;;;;;5.40;3.50;;;;;;;3.11;44.99;102157.31;4925499;28;97710;-82
2022/03/11 06:54:07;;;;;;;7.47;4.33;;;;;;;3.15;44.68;102168.91;4923000;28;99339;-81
2022/03/11 06:56:34;;;;;;;6.67;4.27;;;;;;;3.23;44.75;102154.84;4914816;28;98118;-82
2022/03/11 06:58:59;;;;;;;7.73;4.03;;;;;;;3.23;44.69;102159.53;4937814;28;97190;-81
2022/03/11 07:01:24;;;;;;;5.87;3.90;;;;;;;3.31;44.29;102169.91;4923725;28;96768;-81
2022/03/11 07:03:50;;;;;;;4.97;3.67;;;;;;;3.38;44.71;102166.34;4928159;28;100102;-80
2022/03/11 07:06:16;;;;;;;5.70;3.30;;;;;;;3.40;44.43;102161.28;4926937;28;97205;-82
2022/03/11 07:08:41;;;;;;;4.90;3.50;;;;;;;3.47;44.60;102161.19;4934921;28;97554;-83
2022/03/11 07:11:07;;;;;;;6.77;4.43;;;;;;;3.52;44.37;102158.00;4918732;28;96946;-82
2022/03/11 07:13:32;;;;;;;5.20;3.70;;;;;;;3.55;44.55;102162.66;4932895;28;98107;-83
2022/03/11 07:15:58;;;;;;;6.70;4.30;;;;;;;3.59;44.36;102160.66;4929727;28;96736;-81
2022/03/11 07:18:24;;;;;;;6.33;3.60;;;;;;;3.66;44.21;102158.63;4922402;28;97043;-81
2022/03/11 07:20:50;;;;;;;8.40;3.90;;;;;;;3.76;44.28;102154.22;4927136;28;97144;-81
2022/03/11 07:23:15;;;;;;;5.27;3.50;;;;;;;3.85;44.16;102170.03;4934549;28;96841;-82
2022/03/11 07:25:40;;;;;;;4.17;3.30;;;;;;;3.86;43.97;102156.03;4925935;28;99157;-82
2022/03/11 07:28:06;;;;;;;4.73;3.10;;;;;;;3.88;44.17;102163.78;4932902;28;97087;-82
2022/03/11 07:30:31;;;;;;;9.13;4.13;;;;;;;3.92;44.00;102167.25;4928742;28;96778;-81
2022/03/11 07:32:57;;;;;;;5.93;3.57;;;;;;;3.95;44.06;102164.47;4926813;28;99825;-83
2022/03/11 07:35:22;;;;;;;4.93;3.53;;;;;;;4.01;44.15;102176.44;4930225;28;97584;-80
2022/03/11 07:37:47;;;;;;;4.90;3.30;;;;;;;4.04;44.03;102178.34;4928180;28;96797;-82
2022/03/11 07:40:13;;;;;;;5.57;3.70;;;;;;;4.14;43.83;102161.09;4923942;28;96663;-81
2022/03/11 07:42:42;;;;;;;4.23;3.67;;;;;;;4.20;43.68;102162.16;4946994;28;99578;-83
2022/03/11 07:45:13;;;;;;;6.03;3.87;;;;;;;4.23;43.46;102158.63;4933271;28;98420;-82
2022/03/11 07:47:40;;;;;;;6.10;4.20;;;;;;;4.25;43.54;102156.28;4947315;28;97234;-84
2022/03/11 07:50:06;;;;;;;5.20;3.40;;;;;;;4.33;43.31;102157.69;4931440;28;96882;-83
2022/03/11 07:52:31;;;;;;;4.33;3.67;;;;;;;4.35;43.15;102165.44;4936462;28;98851;-82
2022/03/11 07:54:56;;;;;;;8.93;4.13;;;;;;;4.41;43.35;102156.41;4933930;28;98518;-81
2022/03/11 07:57:22;;;;;;;5.13;3.20;;;;;;;4.47;43.27;102157.50;4929985;28;97159;-82
2022/03/11 07:59:47;;;;;;;4.00;3.33;;;;;;;4.50;42.88;102150.41;4921379;28;98735;-82
2022/03/11 08:02:15;;;;;;;5.70;3.50;;;;;;;4.52;42.83;102143.38;4926285;28;96723;-81
2022/03/11 08:04:42;;;;;;;5.20;3.50;;;;;;;4.63;43.09;102137.75;4918632;28;98758;-81
2022/03/11 08:07:11;;;;;;;4.20;3.00;;;;;;;4.68;42.79;102159.09;4933276;28;97151;-81
2022/03/11 08:09:38;;;;;;;5.60;3.43;;;;;;;4.77;42.80;102134.03;4929787;28;96952;-82
2022/03/11 08:12:04;;;;;;;5.87;3.80;;;;;;;4.84;42.82;102131.16;4941594;28;99555;-82
2022/03/11 08:14:31;;;;;;;6.83;3.33;;;;;;;4.91;42.54;102137.28;4932994;28;97300;-84
2022/03/11 08:16:56;;;;;;;7.67;3.97;;;;;;;5.02;42.12;102128.91;4924852;28;97312;-83
2022/03/11 08:19:23;;;;;;;4.13;3.37;;;;;;;5.13;42.34;102129.47;4958120;28;96778;-82
2022/03/11 08:21:52;;;;;;;5.93;3.87;;;;;;;5.23;42.31;102125.78;4949884;28;99471;-84
2022/03/11 08:24:18;;;;;;;7.53;3.53;;;;;;;5.35;42.11;102127.09;4967073;28;97342;-84
2022/03/11 08:26:44;;;;;;;8.83;3.50;;;;;;;5.43;42.27;102131.22;4950381;28;96864;-83
2022/03/11 08:29:09;;;;;;;6.20;3.87;;;;;;;5.53;41.57;102130.22;4956093;28;96856;-82
2022/03/11 08:31:36;;;;;;;5.40;3.10;;;;;;;5.59;41.72;102156.63;4954537;28;98121;-83
2022/03/11 08:34:01;;;;;;;5.67;3.90;;;;;;;5.70;41.56;102127.13;4953345;28;97273;-83
2022/03/11 08:36:26;;;;;;;7.90;3.90;;;;;;;5.82;41.87;102129.22;4951878;28;96789;-83
2022/03/11 08:38:52;;;;;;;5.03;3.30;;;;;;;5.86;41.18;102132.69;4960148;28;96904;-81
2022/03/11 08:41:19;;;;;;;5.70;3.40;;;;;;;5.91;41.24;102126.72;4962927;28;99849;-82
2022/03/11 08:43:49;;;;;;;4.83;3.40;;;;;;;5.96;40.75;102128.94;4954089;28;99274;-83
2022/03/11 08:46:15;;;;;;;5.63;3.43;;;;;;;6.06;40.73;102127.16;4975705;28;97058;-84
2022/03/11 08:48:41;;;;;;;6.20;2.80;;;;;;;6.18;40.61;102110.09;4949772;28;96912;-83
2022/03/11 08:51:07;;;;;;;4.00;3.50;;;;;;;6.27;40.80;102121.19;4949373;28;99950;-82
2022/03/11 08:53:32;;;;;;;10.90;3.97;;;;;;;6.34;40.52;102098.41;4954222;28;98580;-85
2022/03/11 08:55:57;;;;;;;3.97;3.27;;;;;;;6.44;40.62;102102.84;4956447;28;97386;-82
2022/03/11 08:58:23;;;;;;;5.87;3.00;;;;;;;6.56;40.21;102113.84;4959143;28;97141;-82
2022/03/11 09:00:48;;;;;;;5.27;3.87;;;;;;;6.69;39.65;102109.22;4949450;28;97098;-82
2022/03/11 09:03:13;;;;;;;5.80;3.33;;;;;;;6.86;39.88;102101.75;4954290;28;97156;-84
2022/03/11 09:05:39;;;;;;;4.57;3.30;;;;;;;7.06;40.13;102099.66;4964534;28;96814;-81
2022/03/11 09:08:07;;;;;;;8.00;3.57;;;;;;;7.32;40.02;102093.06;4951589;28;97195;-82
2022/03/11 09:10:33;;;;;;;5.23;3.13;;;;;;;7.52;39.29;102092.88;4958630;28;96962;-84
2022/03/11 09:12:59;;;;;;;3.63;3.00;;;;;;;7.68;37.44;102070.88;4956138;28;99075;-82
2022/03/11 09:15:24;;;;;;;4.80;3.60;;;;;;;7.89;39.18;102085.88;4957159;28;96884;-84
2022/03/11 09:17:50;;;;;;;3.53;3.20;;;;;;;8.07;38.76;102080.63;4956890;28;96966;-82
2022/03/11 09:20:15;;;;;;;3.47;2.60;;;;;;;8.16;38.54;102095.22;4952371;28;100942;-82
2022/03/11 09:22:41;;;;;;;5.03;3.37;;;;;;;8.27;38.58;102079.22;4948853;28;96426;-82
2022/03/11 09:25:09;;;;;;;4.33;3.07;;;;;;;8.41;37.68;102085.44;4923641;28;96881;-82
2022/03/11 09:27:35;;;;;;;3.90;3.00;;;;;;;8.51;37.93;102090.56;4957025;28;97058;-83
2022/03/11 09:30:00;;;;;;;4.50;3.37;;;;;;;8.62;38.01;102063.56;4941721;28;97330;-83
2022/03/11 09:32:26;;;;;;;4.70;3.07;;;;;;;8.72;37.71;102072.63;4959446;28;98809;-81
2022/03/11 09:34:52;;;;;;;8.83;3.40;;;;;;;8.80;37.86;102074.66;4955619;28;96745;-83
2022/03/11 09:37:18;;;;;;;4.73;2.97;;;;;;;8.85;37.54;102071.38;4941315;28;96997;-81
2022/03/11 09:39:43;;;;;;;5.67;3.67;;;;;;;8.96;37.63;102068.22;4923153;28;98731;-82
2022/03/11 09:42:10;;;;;;;5.10;2.87;;;;;;;9.12;37.59;102073.53;4941677;28;97893;-84
2022/03/11 09:44:37;;;;;;;7.97;4.30;;;;;;;9.14;36.97;102076.59;4944650;28;96588;-83
2022/03/11 09:47:03;;;;;;;5.93;3.70;;;;;;;9.26;37.27;102062.03;4938388;28;96933;-83
2022/03/11 09:49:33;;;;;;;4.50;3.23;;;;;;;9.37;37.18;102059.66;4936572;28;96894;-82
2022/03/11 09:52:00;;;;;;;3.97;3.50;;;;;;;9.49;37.34;102088.25;4937217;28;100904;-81
2022/03/11 09:54:25;;;;;;;5.00;3.60;;;;;;;9.59;37.34;102065.88;4928665;28;97119;-81
2022/03/11 09:56:51;;;;;;;5.57;3.07;;;;;;;9.65;36.85;102050.34;4922964;28;96914;-84
2022/03/11 09:59:16;;;;;;;6.10;3.40;;;;;;;9.67;36.96;102058.91;4929707;28;98724;-81
2022/03/11 10:01:42;;;;;;;5.10;3.77;;;;;;;9.68;36.69;102054.16;4944164;28;98300;-82
2022/03/11 10:04:08;;;;;;;5.33;3.60;;;;;;;9.63;36.75;102052.75;4953335;28;96924;-83
2022/03/11 10:06:37;;;;;;;4.77;2.83;;;;;;;9.69;35.73;102044.72;4943027;28;97123;-83
2022/03/11 10:09:02;;;;;;;5.50;3.43;;;;;;;9.73;36.46;102042.59;4967950;28;99725;-82
2022/03/11 10:11:28;;;;;;;9.83;4.00;;;;;;;9.76;36.16;102041.69;4962525;28;100630;-82
2022/03/11 10:14:03;;;;;;;5.57;3.50;;;;;;;9.75;36.15;102032.69;4952506;28;96945;-83
2022/03/11 10:16:30;;;;;;;5.43;3.10;;;;;;;9.76;35.46;102039.69;4954825;28;96910;-82
2022/03/11 10:19:04;;;;;;;4.77;3.07;;;;;;;9.77;35.23;102043.22;4961382;28;96752;-85
2022/03/11 10:21:45;;;;;;;3.10;2.80;;;;;;;9.78;33.76;102042.00;4967419;28;96727;-82
2022/03/11 10:24:15;;;;;;;5.07;3.10;;;;;;;9.76;34.69;102031.44;4963537;28;96803;-81
2022/03/11 10:26:44;;;;;;;3.43;3.13;;;;;;;9.81;35.75;102052.84;4954012;28;96773;-81
2022/03/11 10:29:18;;;;;;;3.37;2.80;;;;;;;9.80;34.08;102040.34;4961108;28;99602;-83
2022/03/11 10:31:46;;;;;;;3.27;2.60;;;;;;;9.82;35.66;102045.38;4959431;28;98231;-83
2022/03/11 10:34:12;;;;;;;3.90;2.67;;;;;;;9.81;35.46;102041.09;4954073;28;97157;-83
2022/03/11 10:36:46;;;;;;;5.33;3.60;;;;;;;9.85;33.95;102049.94;4955615;28;96801;-84
2022/03/11 10:39:20;;;;;;;4.90;2.87;;;;;;;9.79;33.95;102030.56;4957485;28;102227;-82
2022/03/11 10:41:46;;;;;;;5.63;3.50;;;;;;;9.83;34.86;102031.16;4970794;28;103833;-83
2022/03/11 10:44:12;;;;;;;2.73;2.53;;;;;;;9.90;35.12;102032.09;4945927;28;97719;-83
2022/03/11 10:46:38;;;;;;;3.30;2.70;;;;;;;9.98;35.32;102022.38;4961561;28;97004;-84
2022/03/11 10:49:04;;;;;;;3.67;2.77;;;;;;;10.03;35.54;102025.28;4946896;28;97734;-83
2022/03/11 10:51:33;;;;;;;3.37;2.60;;;;;;;10.17;35.12;102038.47;4946530;28;98366;-82
2022/03/11 10:54:04;;;;;;;3.83;2.90;;;;;;;10.21;34.17;102030.84;4949115;28;96842;-83
2022/03/11 10:56:39;;;;;;;2.97;2.30;;;;;;;10.26;34.15;102018.47;4953955;28;96992;-83
2022/03/11 10:59:24;;;;;;;3.87;2.60;;;;;;;10.31;30.55;102017.88;4961888;28;97747;-81
2022/03/11 11:01:53;;;;;;;4.20;3.10;;;;;;;10.37;34.00;102005.81;4951307;28;97231;-82
2022/03/11 11:04:20;;;;;;;2.60;2.40;;;;;;;10.44;34.67;102004.75;4946378;28;96915;-82
2022/03/11 11:06:46;;;;;;;5.43;3.13;;;;;;;10.49;34.08;102034.38;4945926;28;96774;-81
2022/03/11 11:09:13;;;;;;;3.97;3.30;;;;;;;10.54;33.67;102018.03;4957490;28;99008;-82
2022/03/11 11:11:40;;;;;;;5.30;3.07;;;;;;;10.65;33.94;101994.78;4956795;28;98443;-84
2022/03/11 11:14:10;;;;;;;3.97;3.10;;;;;;;10.75;33.96;102024.59;4948688;28;97368;-82
2022/03/11 11:16:40;;;;;;;4.43;3.17;;;;;;;10.87;33.80;101987.13;4943338;28;96769;-81
2022/03/11 11:19:07;;;;;;;3.20;2.90;;;;;;;11.04;33.88;101980.81;4942614;28;98711;-84
2022/03/11 11:21:38;;;;;;;4.90;3.37;;;;;;;11.22;33.29;101986.28;4946470;28;98357;-83
2022/03/11 11:24:09;;;;;;;7.10;3.43;;;;;;;11.39;33.38;101959.13;4955763;28;96654;-83
2022/03/11 11:26:35;;;;;;;4.30;3.27;;;;;;;11.55;33.17;101986.31;4961505;28;96925;-83